sensor_id;sensor_type;location;lat;lon;timestamp;P1;durP1;ratioP1;P2;durP2;ratioP2
3597;SDS011;1813;52.016;8.714;2023-12-20T00:01:44;24.83;;;14.17;;
3597;SDS011;1813;52.016;8.714;2023-12-20T00:04:17;22.77;;;13.70;;
3597;SDS011;1813;52.016;8.714;2023-12-20T00:06:54;20.33;;;13.40;;
3597;SDS011;1813;52.016;8.714;2023-12-20T00:09:27;20.03;;;12.73;;
3597;SDS011;1813;52.016;8.714;2023-12-20T00:12:03;19.30;;;12.63;;
3597;SDS011;1813;52.016;8.714;2023-12-20T00:14:37;18.77;;;11.90;;
3597;SDS011;1813;52.016;8.714;2023-12-20T00:17:11;18.70;;;12.10;;
3597;SDS011;1813;52.016;8.714;2023-12-20T00:19:44;23.33;;;12.23;;
3597;SDS011;1813;52.016;8.714;2023-12-20T00:22:20;20.57;;;11.40;;
3597;SDS011;1813;52.016;8.714;2023-12-20T00:24:54;21.60;;;11.07;;
3597;SDS011;1813;52.016;8.714;2023-12-20T00:27:28;16.13;;;9.93;;
3597;SDS011;1813;52.016;8.714;2023-12-20T00:30:02;14.33;;;8.77;;
3597;SDS011;1813;52.016;8.714;2023-12-20T00:32:36;11.40;;;7.90;;
3597;SDS011;1813;52.016;8.714;2023-12-20T00:35:16;14.87;;;8.33;;
3597;SDS011;1813;52.016;8.714;2023-12-20T00:37:52;11.73;;;7.50;;
3597;SDS011;1813;52.016;8.714;2023-12-20T00:40:25;14.23;;;8.10;;
3597;SDS011;1813;52.016;8.714;2023-12-20T00:42:59;13.63;;;7.60;;
3597;SDS011;1813;52.016;8.714;2023-12-20T00:45:35;11.50;;;7.87;;
3597;SDS011;1813;52.016;8.714;2023-12-20T00:48:09;16.53;;;7.40;;
3597;SDS011;1813;52.016;8.714;2023-12-20T00:50:42;13.57;;;7.57;;
3597;SDS011;1813;52.016;8.714;2023-12-20T00:53:19;9.27;;;6.40;;
3597;SDS011;1813;52.016;8.714;2023-12-20T00:55:52;13.33;;;6.53;;
3597;SDS011;1813;52.016;8.714;2023-12-20T00:58:26;20.70;;;5.73;;
3597;SDS011;1813;52.016;8.714;2023-12-20T01:00:59;12.77;;;5.33;;
3597;SDS011;1813;52.016;8.714;2023-12-20T01:03:33;11.33;;;5.90;;
3597;SDS011;1813;52.016;8.714;2023-12-20T01:06:11;11.47;;;5.50;;
3597;SDS011;1813;52.016;8.714;2023-12-20T01:08:47;10.80;;;5.60;;
3597;SDS011;1813;52.016;8.714;2023-12-20T01:11:20;14.43;;;5.20;;
3597;SDS011;1813;52.016;8.714;2023-12-20T01:13:54;14.97;;;5.70;;
3597;SDS011;1813;52.016;8.714;2023-12-20T01:16:27;13.67;;;5.93;;
3597;SDS011;1813;52.016;8.714;2023-12-20T01:19:01;12.67;;;5.10;;
3597;SDS011;1813;52.016;8.714;2023-12-20T01:21:35;11.13;;;5.70;;
3597;SDS011;1813;52.016;8.714;2023-12-20T01:24:11;8.47;;;5.10;;
3597;SDS011;1813;52.016;8.714;2023-12-20T01:26:44;10.67;;;5.33;;
3597;SDS011;1813;52.016;8.714;2023-12-20T01:29:18;9.57;;;5.23;;
3597;SDS011;1813;52.016;8.714;2023-12-20T01:31:52;9.97;;;5.10;;
3597;SDS011;1813;52.016;8.714;2023-12-20T01:34:25;12.90;;;5.60;;
3597;SDS011;1813;52.016;8.714;2023-12-20T01:37:01;15.83;;;5.00;;
3597;SDS011;1813;52.016;8.714;2023-12-20T01:39:37;11.53;;;5.23;;
3597;SDS011;1813;52.016;8.714;2023-12-20T01:42:10;13.17;;;5.07;;
3597;SDS011;1813;52.016;8.714;2023-12-20T01:44:44;15.60;;;5.50;;
3597;SDS011;1813;52.016;8.714;2023-12-20T01:47:18;10.80;;;5.27;;
3597;SDS011;1813;52.016;8.714;2023-12-20T01:49:52;13.20;;;5.77;;
3597;SDS011;1813;52.016;8.714;2023-12-20T01:52:29;13.27;;;5.83;;
3597;SDS011;1813;52.016;8.714;2023-12-20T01:55:07;13.80;;;5.60;;
3597;SDS011;1813;52.016;8.714;2023-12-20T01:57:47;9.00;;;4.90;;
3597;SDS011;1813;52.016;8.714;2023-12-20T02:00:21;10.70;;;4.60;;
3597;SDS011;1813;52.016;8.714;2023-12-20T02:02:56;6.97;;;4.23;;
3597;SDS011;1813;52.016;8.714;2023-12-20T02:05:34;13.80;;;4.50;;
3597;SDS011;1813;52.016;8.714;2023-12-20T02:08:08;17.23;;;4.70;;
3597;SDS011;1813;52.016;8.714;2023-12-20T02:10:45;7.20;;;4.20;;
3597;SDS011;1813;52.016;8.714;2023-12-20T02:13:19;8.43;;;4.37;;
3597;SDS011;1813;52.016;8.714;2023-12-20T02:15:53;8.87;;;4.27;;
3597;SDS011;1813;52.016;8.714;2023-12-20T02:18:27;11.47;;;4.83;;
3597;SDS011;1813;52.016;8.714;2023-12-20T02:21:03;10.23;;;4.53;;
3597;SDS011;1813;52.016;8.714;2023-12-20T02:23:40;13.27;;;5.63;;
3597;SDS011;1813;52.016;8.714;2023-12-20T02:26:13;10.63;;;4.33;;
3597;SDS011;1813;52.016;8.714;2023-12-20T02:28:46;13.20;;;5.57;;
3597;SDS011;1813;52.016;8.714;2023-12-20T02:31:20;12.10;;;4.53;;
3597;SDS011;1813;52.016;8.714;2023-12-20T02:33:54;9.10;;;4.87;;
3597;SDS011;1813;52.016;8.714;2023-12-20T02:36:29;16.60;;;4.73;;
3597;SDS011;1813;52.016;8.714;2023-12-20T02:39:08;11.20;;;4.77;;
3597;SDS011;1813;52.016;8.714;2023-12-20T02:41:41;13.30;;;4.70;;
3597;SDS011;1813;52.016;8.714;2023-12-20T02:44:14;15.00;;;5.10;;
3597;SDS011;1813;52.016;8.714;2023-12-20T02:46:48;9.33;;;4.10;;
3597;SDS011;1813;52.016;8.714;2023-12-20T02:49:21;10.50;;;4.40;;
3597;SDS011;1813;52.016;8.714;2023-12-20T02:51:55;14.17;;;4.53;;
3597;SDS011;1813;52.016;8.714;2023-12-20T02:54:52;9.70;;;4.63;;
3597;SDS011;1813;52.016;8.714;2023-12-20T02:57:28;10.73;;;4.13;;
3597;SDS011;1813;52.016;8.714;2023-12-20T03:00:04;17.67;;;5.17;;
3597;SDS011;1813;52.016;8.714;2023-12-20T03:02:39;12.23;;;4.37;;
3597;SDS011;1813;52.016;8.714;2023-12-20T03:05:13;10.87;;;4.93;;
3597;SDS011;1813;52.016;8.714;2023-12-20T03:07:48;16.63;;;5.10;;
3597;SDS011;1813;52.016;8.714;2023-12-20T03:10:24;14.10;;;4.60;;
3597;SDS011;1813;52.016;8.714;2023-12-20T03:13:00;11.70;;;5.70;;
3597;SDS011;1813;52.016;8.714;2023-12-20T03:15:34;11.67;;;5.17;;
3597;SDS011;1813;52.016;8.714;2023-12-20T03:18:08;13.03;;;6.10;;
3597;SDS011;1813;52.016;8.714;2023-12-20T03:20:41;14.90;;;6.60;;
3597;SDS011;1813;52.016;8.714;2023-12-20T03:23:15;12.80;;;6.23;;
3597;SDS011;1813;52.016;8.714;2023-12-20T03:25:51;14.00;;;6.63;;
3597;SDS011;1813;52.016;8.714;2023-12-20T03:28:24;13.67;;;6.57;;
3597;SDS011;1813;52.016;8.714;2023-12-20T03:30:58;13.77;;;7.10;;
3597;SDS011;1813;52.016;8.714;2023-12-20T03:33:32;22.83;;;7.77;;
3597;SDS011;1813;52.016;8.714;2023-12-20T03:36:06;20.00;;;7.13;;
3597;SDS011;1813;52.016;8.714;2023-12-20T03:38:40;17.87;;;7.90;;
3597;SDS011;1813;52.016;8.714;2023-12-20T03:41:18;18.77;;;7.00;;
3597;SDS011;1813;52.016;8.714;2023-12-20T03:43:52;13.10;;;7.33;;
3597;SDS011;1813;52.016;8.714;2023-12-20T03:46:25;25.73;;;7.70;;
3597;SDS011;1813;52.016;8.714;2023-12-20T03:48:59;21.00;;;8.07;;
3597;SDS011;1813;52.016;8.714;2023-12-20T03:51:33;18.93;;;7.27;;
3597;SDS011;1813;52.016;8.714;2023-12-20T03:54:07;13.60;;;7.30;;
3597;SDS011;1813;52.016;8.714;2023-12-20T03:56:43;19.80;;;7.67;;
3597;SDS011;1813;52.016;8.714;2023-12-20T03:59:17;21.37;;;7.00;;
3597;SDS011;1813;52.016;8.714;2023-12-20T04:01:50;16.07;;;7.47;;
3597;SDS011;1813;52.016;8.714;2023-12-20T04:04:24;15.40;;;7.37;;
3597;SDS011;1813;52.016;8.714;2023-12-20T04:06:57;22.70;;;7.70;;
3597;SDS011;1813;52.016;8.714;2023-12-20T04:09:31;18.33;;;7.20;;
3597;SDS011;1813;52.016;8.714;2023-12-20T04:12:08;23.30;;;8.10;;
3597;SDS011;1813;52.016;8.714;2023-12-20T04:14:41;19.50;;;7.90;;
3597;SDS011;1813;52.016;8.714;2023-12-20T04:17:15;26.93;;;8.80;;
3597;SDS011;1813;52.016;8.714;2023-12-20T04:19:49;20.13;;;9.10;;
3597;SDS011;1813;52.016;8.714;2023-12-20T04:22:22;22.20;;;9.00;;
3597;SDS011;1813;52.016;8.714;2023-12-20T04:24:57;23.53;;;9.10;;
3597;SDS011;1813;52.016;8.714;2023-12-20T04:27:33;19.13;;;8.80;;
3597;SDS011;1813;52.016;8.714;2023-12-20T04:30:07;20.57;;;9.70;;
3597;SDS011;1813;52.016;8.714;2023-12-20T04:32:42;20.53;;;9.00;;
3597;SDS011;1813;52.016;8.714;2023-12-20T04:35:16;20.00;;;7.90;;
3597;SDS011;1813;52.016;8.714;2023-12-20T04:37:49;27.53;;;8.87;;
3597;SDS011;1813;52.016;8.714;2023-12-20T04:40:23;21.87;;;8.57;;
3597;SDS011;1813;52.016;8.714;2023-12-20T04:42:59;16.53;;;6.90;;
3597;SDS011;1813;52.016;8.714;2023-12-20T04:45:32;20.33;;;8.33;;
3597;SDS011;1813;52.016;8.714;2023-12-20T04:48:06;21.67;;;8.10;;
3597;SDS011;1813;52.016;8.714;2023-12-20T04:50:39;16.93;;;7.60;;
3597;SDS011;1813;52.016;8.714;2023-12-20T04:53:13;23.43;;;8.27;;
3597;SDS011;1813;52.016;8.714;2023-12-20T04:55:47;25.13;;;8.30;;
3597;SDS011;1813;52.016;8.714;2023-12-20T04:58:24;33.10;;;8.67;;
3597;SDS011;1813;52.016;8.714;2023-12-20T05:00:57;19.77;;;7.87;;
3597;SDS011;1813;52.016;8.714;2023-12-20T05:03:30;24.20;;;8.40;;
3597;SDS011;1813;52.016;8.714;2023-12-20T05:06:04;29.40;;;8.13;;
3597;SDS011;1813;52.016;8.714;2023-12-20T05:08:37;20.53;;;6.60;;
3597;SDS011;1813;52.016;8.714;2023-12-20T05:11:13;30.33;;;8.90;;
3597;SDS011;1813;52.016;8.714;2023-12-20T05:13:49;28.07;;;7.70;;
3597;SDS011;1813;52.016;8.714;2023-12-20T05:16:23;32.37;;;8.10;;
3597;SDS011;1813;52.016;8.714;2023-12-20T05:18:56;24.87;;;7.60;;
3597;SDS011;1813;52.016;8.714;2023-12-20T05:21:31;21.10;;;7.73;;
3597;SDS011;1813;52.016;8.714;2023-12-20T05:24:04;23.47;;;7.10;;
3597;SDS011;1813;52.016;8.714;2023-12-20T05:26:38;21.23;;;6.87;;
3597;SDS011;1813;52.016;8.714;2023-12-20T05:29:14;20.63;;;8.03;;
3597;SDS011;1813;52.016;8.714;2023-12-20T05:31:48;27.13;;;7.97;;
3597;SDS011;1813;52.016;8.714;2023-12-20T05:34:22;27.63;;;7.60;;
3597;SDS011;1813;52.016;8.714;2023-12-20T05:36:56;24.53;;;7.50;;
3597;SDS011;1813;52.016;8.714;2023-12-20T05:39:29;16.50;;;6.60;;
3597;SDS011;1813;52.016;8.714;2023-12-20T05:42:04;25.53;;;7.40;;
3597;SDS011;1813;52.016;8.714;2023-12-20T05:44:40;26.10;;;7.30;;
3597;SDS011;1813;52.016;8.714;2023-12-20T05:47:14;26.13;;;7.47;;
3597;SDS011;1813;52.016;8.714;2023-12-20T05:49:47;19.23;;;5.90;;
3597;SDS011;1813;52.016;8.714;2023-12-20T05:52:21;23.77;;;6.70;;
3597;SDS011;1813;52.016;8.714;2023-12-20T05:54:54;29.00;;;7.70;;
3597;SDS011;1813;52.016;8.714;2023-12-20T05:57:31;24.40;;;7.60;;
3597;SDS011;1813;52.016;8.714;2023-12-20T06:00:09;23.53;;;8.13;;
3597;SDS011;1813;52.016;8.714;2023-12-20T06:02:44;26.07;;;7.87;;
3597;SDS011;1813;52.016;8.714;2023-12-20T06:05:18;21.83;;;7.10;;
3597;SDS011;1813;52.016;8.714;2023-12-20T06:07:52;26.67;;;7.93;;
3597;SDS011;1813;52.016;8.714;2023-12-20T06:10:27;21.83;;;6.70;;
3597;SDS011;1813;52.016;8.714;2023-12-20T06:13:01;17.47;;;6.80;;
3597;SDS011;1813;52.016;8.714;2023-12-20T06:15:38;26.30;;;7.10;;
3597;SDS011;1813;52.016;8.714;2023-12-20T06:18:11;22.90;;;8.17;;
3597;SDS011;1813;52.016;8.714;2023-12-20T06:20:45;25.10;;;8.80;;
3597;SDS011;1813;52.016;8.714;2023-12-20T06:23:18;23.00;;;7.87;;
3597;SDS011;1813;52.016;8.714;2023-12-20T06:25:52;21.33;;;8.27;;
3597;SDS011;1813;52.016;8.714;2023-12-20T06:28:25;25.63;;;9.17;;
3597;SDS011;1813;52.016;8.714;2023-12-20T06:31:02;22.87;;;8.20;;
3597;SDS011;1813;52.016;8.714;2023-12-20T06:33:38;22.13;;;8.60;;
3597;SDS011;1813;52.016;8.714;2023-12-20T06:36:13;24.60;;;8.30;;
3597;SDS011;1813;52.016;8.714;2023-12-20T06:38:46;19.77;;;7.80;;
3597;SDS011;1813;52.016;8.714;2023-12-20T06:41:20;23.10;;;8.50;;
3597;SDS011;1813;52.016;8.714;2023-12-20T06:43:54;28.33;;;9.10;;
3597;SDS011;1813;52.016;8.714;2023-12-20T06:46:30;29.07;;;8.47;;
3597;SDS011;1813;52.016;8.714;2023-12-20T06:49:04;28.60;;;9.10;;
3597;SDS011;1813;52.016;8.714;2023-12-20T06:51:38;30.10;;;8.70;;
3597;SDS011;1813;52.016;8.714;2023-12-20T06:54:12;25.93;;;8.47;;
3597;SDS011;1813;52.016;8.714;2023-12-20T06:56:45;23.10;;;8.47;;
3597;SDS011;1813;52.016;8.714;2023-12-20T06:59:19;23.30;;;8.57;;
3597;SDS011;1813;52.016;8.714;2023-12-20T07:01:55;25.33;;;8.30;;
3597;SDS011;1813;52.016;8.714;2023-12-20T07:04:29;22.53;;;8.37;;
3597;SDS011;1813;52.016;8.714;2023-12-20T07:07:02;23.00;;;10.10;;
3597;SDS011;1813;52.016;8.714;2023-12-20T07:09:37;19.60;;;8.83;;
3597;SDS011;1813;52.016;8.714;2023-12-20T07:12:12;24.20;;;9.00;;
3597;SDS011;1813;52.016;8.714;2023-12-20T07:14:46;30.03;;;9.50;;
3597;SDS011;1813;52.016;8.714;2023-12-20T07:17:22;24.07;;;8.27;;
3597;SDS011;1813;52.016;8.714;2023-12-20T07:19:55;23.43;;;9.00;;
3597;SDS011;1813;52.016;8.714;2023-12-20T07:22:28;22.53;;;8.60;;
3597;SDS011;1813;52.016;8.714;2023-12-20T07:25:02;30.80;;;7.80;;
3597;SDS011;1813;52.016;8.714;2023-12-20T07:27:36;30.70;;;8.30;;
3597;SDS011;1813;52.016;8.714;2023-12-20T07:30:10;25.40;;;8.60;;
3597;SDS011;1813;52.016;8.714;2023-12-20T07:32:47;21.83;;;7.80;;
3597;SDS011;1813;52.016;8.714;2023-12-20T07:35:20;24.90;;;8.73;;
3597;SDS011;1813;52.016;8.714;2023-12-20T07:37:55;21.87;;;8.10;;
3597;SDS011;1813;52.016;8.714;2023-12-20T07:40:29;22.73;;;6.67;;
3597;SDS011;1813;52.016;8.714;2023-12-20T07:43:05;28.00;;;7.90;;
3597;SDS011;1813;52.016;8.714;2023-12-20T07:45:39;22.10;;;7.60;;
3597;SDS011;1813;52.016;8.714;2023-12-20T07:48:15;24.77;;;7.60;;
3597;SDS011;1813;52.016;8.714;2023-12-20T07:50:49;18.93;;;6.30;;
3597;SDS011;1813;52.016;8.714;2023-12-20T07:53:23;25.70;;;7.80;;
3597;SDS011;1813;52.016;8.714;2023-12-20T07:55:56;20.63;;;6.30;;
3597;SDS011;1813;52.016;8.714;2023-12-20T07:58:30;26.60;;;7.23;;
3597;SDS011;1813;52.016;8.714;2023-12-20T08:01:05;24.63;;;7.20;;
3597;SDS011;1813;52.016;8.714;2023-12-20T08:03:42;31.13;;;7.60;;
3597;SDS011;1813;52.016;8.714;2023-12-20T08:06:15;22.20;;;6.37;;
3597;SDS011;1813;52.016;8.714;2023-12-20T08:08:49;25.53;;;6.70;;
3597;SDS011;1813;52.016;8.714;2023-12-20T08:11:24;25.67;;;6.13;;
3597;SDS011;1813;52.016;8.714;2023-12-20T08:13:58;18.17;;;6.03;;
3597;SDS011;1813;52.016;8.714;2023-12-20T08:16:31;20.20;;;6.90;;
3597;SDS011;1813;52.016;8.714;2023-12-20T08:19:07;24.47;;;5.83;;
3597;SDS011;1813;52.016;8.714;2023-12-20T08:21:41;21.57;;;6.13;;
3597;SDS011;1813;52.016;8.714;2023-12-20T08:24:14;14.93;;;5.67;;
3597;SDS011;1813;52.016;8.714;2023-12-20T08:26:48;24.93;;;6.60;;
3597;SDS011;1813;52.016;8.714;2023-12-20T08:29:21;12.73;;;4.90;;
3597;SDS011;1813;52.016;8.714;2023-12-20T08:31:54;24.03;;;6.27;;
3597;SDS011;1813;52.016;8.714;2023-12-20T08:34:31;24.33;;;6.57;;
3597;SDS011;1813;52.016;8.714;2023-12-20T08:37:04;14.67;;;6.47;;
3597;SDS011;1813;52.016;8.714;2023-12-20T08:39:39;22.13;;;6.30;;
3597;SDS011;1813;52.016;8.714;2023-12-20T08:42:15;20.63;;;6.00;;
3597;SDS011;1813;52.016;8.714;2023-12-20T08:44:48;24.67;;;6.87;;
3597;SDS011;1813;52.016;8.714;2023-12-20T08:47:21;28.17;;;6.90;;
3597;SDS011;1813;52.016;8.714;2023-12-20T08:49:57;19.63;;;7.40;;
3597;SDS011;1813;52.016;8.714;2023-12-20T08:52:32;17.20;;;6.77;;
3597;SDS011;1813;52.016;8.714;2023-12-20T08:55:05;21.27;;;7.20;;
3597;SDS011;1813;52.016;8.714;2023-12-20T08:57:40;16.90;;;6.93;;
3597;SDS011;1813;52.016;8.714;2023-12-20T09:00:13;22.90;;;7.40;;
3597;SDS011;1813;52.016;8.714;2023-12-20T09:02:48;20.73;;;7.17;;
3597;SDS011;1813;52.016;8.714;2023-12-20T09:05:24;27.43;;;7.07;;
3597;SDS011;1813;52.016;8.714;2023-12-20T09:07:57;24.33;;;7.80;;
3597;SDS011;1813;52.016;8.714;2023-12-20T09:10:30;28.17;;;7.13;;
3597;SDS011;1813;52.016;8.714;2023-12-20T09:13:06;21.70;;;7.57;;
3597;SDS011;1813;52.016;8.714;2023-12-20T09:15:41;28.77;;;7.97;;
3597;SDS011;1813;52.016;8.714;2023-12-20T09:18:14;23.10;;;8.23;;
3597;SDS011;1813;52.016;8.714;2023-12-20T09:20:50;20.37;;;8.20;;
3597;SDS011;1813;52.016;8.714;2023-12-20T09:23:24;37.23;;;8.60;;
3597;SDS011;1813;52.016;8.714;2023-12-20T09:25:58;26.23;;;8.50;;
3597;SDS011;1813;52.016;8.714;2023-12-20T09:28:32;26.73;;;8.90;;
3597;SDS011;1813;52.016;8.714;2023-12-20T09:31:07;25.00;;;9.17;;
3597;SDS011;1813;52.016;8.714;2023-12-20T09:33:40;22.70;;;8.20;;
3597;SDS011;1813;52.016;8.714;2023-12-20T09:36:16;30.23;;;10.67;;
3597;SDS011;1813;52.016;8.714;2023-12-20T09:38:49;25.23;;;9.77;;
3597;SDS011;1813;52.016;8.714;2023-12-20T09:41:24;23.93;;;9.00;;
3597;SDS011;1813;52.016;8.714;2023-12-20T09:44:00;23.23;;;10.33;;
3597;SDS011;1813;52.016;8.714;2023-12-20T09:46:35;21.53;;;9.50;;
3597;SDS011;1813;52.016;8.714;2023-12-20T09:49:15;28.73;;;11.43;;
3597;SDS011;1813;52.016;8.714;2023-12-20T09:51:56;30.13;;;10.20;;
3597;SDS011;1813;52.016;8.714;2023-12-20T09:54:30;20.50;;;10.00;;
3597;SDS011;1813;52.016;8.714;2023-12-20T09:57:04;29.50;;;11.63;;
3597;SDS011;1813;52.016;8.714;2023-12-20T09:59:37;29.33;;;11.57;;
3597;SDS011;1813;52.016;8.714;2023-12-20T10:02:12;37.27;;;11.60;;
3597;SDS011;1813;52.016;8.714;2023-12-20T10:04:51;27.30;;;11.03;;
3597;SDS011;1813;52.016;8.714;2023-12-20T10:07:27;24.77;;;8.37;;
3597;SDS011;1813;52.016;8.714;2023-12-20T10:10:01;27.73;;;10.60;;
3597;SDS011;1813;52.016;8.714;2023-12-20T10:12:35;26.50;;;10.40;;
3597;SDS011;1813;52.016;8.714;2023-12-20T10:15:08;26.80;;;9.60;;
3597;SDS011;1813;52.016;8.714;2023-12-20T10:17:43;26.07;;;9.90;;
3597;SDS011;1813;52.016;8.714;2023-12-20T10:20:17;22.73;;;9.13;;
3597;SDS011;1813;52.016;8.714;2023-12-20T10:22:53;22.27;;;8.57;;
3597;SDS011;1813;52.016;8.714;2023-12-20T10:25:27;26.93;;;8.87;;
3597;SDS011;1813;52.016;8.714;2023-12-20T10:28:11;28.47;;;8.93;;
3597;SDS011;1813;52.016;8.714;2023-12-20T10:30:48;27.20;;;8.60;;
3597;SDS011;1813;52.016;8.714;2023-12-20T10:33:23;26.90;;;8.50;;
3597;SDS011;1813;52.016;8.714;2023-12-20T10:35:57;31.40;;;8.27;;
3597;SDS011;1813;52.016;8.714;2023-12-20T10:38:34;23.80;;;8.93;;
3597;SDS011;1813;52.016;8.714;2023-12-20T10:41:11;24.00;;;7.40;;
3597;SDS011;1813;52.016;8.714;2023-12-20T10:43:47;23.97;;;7.77;;
3597;SDS011;1813;52.016;8.714;2023-12-20T10:46:21;16.07;;;6.20;;
3597;SDS011;1813;52.016;8.714;2023-12-20T10:48:56;21.87;;;7.63;;
3597;SDS011;1813;52.016;8.714;2023-12-20T10:51:30;23.00;;;7.97;;
3597;SDS011;1813;52.016;8.714;2023-12-20T10:54:07;23.00;;;7.60;;
3597;SDS011;1813;52.016;8.714;2023-12-20T10:56:41;17.13;;;7.23;;
3597;SDS011;1813;52.016;8.714;2023-12-20T10:59:15;16.90;;;6.90;;
3597;SDS011;1813;52.016;8.714;2023-12-20T11:01:52;16.20;;;5.80;;
3597;SDS011;1813;52.016;8.714;2023-12-20T11:04:31;22.83;;;6.77;;
3597;SDS011;1813;52.016;8.714;2023-12-20T11:07:15;20.43;;;6.50;;
3597;SDS011;1813;52.016;8.714;2023-12-20T11:09:59;19.63;;;5.80;;
3597;SDS011;1813;52.016;8.714;2023-12-20T11:12:39;14.37;;;5.67;;
3597;SDS011;1813;52.016;8.714;2023-12-20T11:15:20;16.10;;;6.07;;
3597;SDS011;1813;52.016;8.714;2023-12-20T11:17:55;15.53;;;6.33;;
3597;SDS011;1813;52.016;8.714;2023-12-20T11:20:35;21.93;;;7.53;;
3597;SDS011;1813;52.016;8.714;2023-12-20T11:23:09;20.13;;;7.67;;
3597;SDS011;1813;52.016;8.714;2023-12-20T11:25:51;21.20;;;7.20;;
3597;SDS011;1813;52.016;8.714;2023-12-20T11:28:26;28.93;;;8.00;;
3597;SDS011;1813;52.016;8.714;2023-12-20T11:31:01;24.57;;;7.53;;
3597;SDS011;1813;52.016;8.714;2023-12-20T11:33:35;17.20;;;6.73;;
3597;SDS011;1813;52.016;8.714;2023-12-20T11:36:13;21.90;;;7.83;;
3597;SDS011;1813;52.016;8.714;2023-12-20T11:38:55;24.50;;;7.33;;
3597;SDS011;1813;52.016;8.714;2023-12-20T11:41:33;17.77;;;6.63;;
3597;SDS011;1813;52.016;8.714;2023-12-20T11:44:06;17.20;;;6.10;;
3597;SDS011;1813;52.016;8.714;2023-12-20T11:46:41;19.80;;;6.90;;
3597;SDS011;1813;52.016;8.714;2023-12-20T11:49:15;16.07;;;6.50;;
3597;SDS011;1813;52.016;8.714;2023-12-20T11:51:48;16.10;;;5.83;;
3597;SDS011;1813;52.016;8.714;2023-12-20T11:54:22;17.30;;;5.70;;
3597;SDS011;1813;52.016;8.714;2023-12-20T11:57:00;18.27;;;5.50;;
3597;SDS011;1813;52.016;8.714;2023-12-20T11:59:33;17.63;;;6.00;;
3597;SDS011;1813;52.016;8.714;2023-12-20T12:02:07;16.07;;;5.50;;
3597;SDS011;1813;52.016;8.714;2023-12-20T12:04:41;14.37;;;5.50;;
3597;SDS011;1813;52.016;8.714;2023-12-20T12:07:16;16.83;;;5.70;;
3597;SDS011;1813;52.016;8.714;2023-12-20T12:09:52;19.50;;;5.40;;
3597;SDS011;1813;52.016;8.714;2023-12-20T12:12:28;13.60;;;5.50;;
3597;SDS011;1813;52.016;8.714;2023-12-20T12:15:03;21.93;;;5.77;;
3597;SDS011;1813;52.016;8.714;2023-12-20T12:17:39;20.47;;;5.87;;
3597;SDS011;1813;52.016;8.714;2023-12-20T12:20:12;10.70;;;4.40;;
3597;SDS011;1813;52.016;8.714;2023-12-20T12:22:46;12.73;;;4.20;;
3597;SDS011;1813;52.016;8.714;2023-12-20T12:25:20;11.43;;;4.70;;
3597;SDS011;1813;52.016;8.714;2023-12-20T12:27:59;14.03;;;4.20;;
3597;SDS011;1813;52.016;8.714;2023-12-20T12:30:32;16.00;;;5.20;;
3597;SDS011;1813;52.016;8.714;2023-12-20T12:33:06;14.40;;;5.33;;
3597;SDS011;1813;52.016;8.714;2023-12-20T12:35:39;12.87;;;4.30;;
3597;SDS011;1813;52.016;8.714;2023-12-20T12:38:19;12.73;;;4.00;;
3597;SDS011;1813;52.016;8.714;2023-12-20T12:40:54;12.90;;;4.80;;
3597;SDS011;1813;52.016;8.714;2023-12-20T12:43:36;8.27;;;4.27;;
3597;SDS011;1813;52.016;8.714;2023-12-20T12:46:09;10.47;;;4.20;;
3597;SDS011;1813;52.016;8.714;2023-12-20T12:48:43;13.63;;;4.80;;
3597;SDS011;1813;52.016;8.714;2023-12-20T12:51:17;16.80;;;5.10;;
3597;SDS011;1813;52.016;8.714;2023-12-20T12:53:50;15.33;;;5.00;;
3597;SDS011;1813;52.016;8.714;2023-12-20T12:56:24;14.40;;;5.13;;
3597;SDS011;1813;52.016;8.714;2023-12-20T12:59:00;17.93;;;4.53;;
3597;SDS011;1813;52.016;8.714;2023-12-20T13:01:35;16.87;;;4.83;;
3597;SDS011;1813;52.016;8.714;2023-12-20T13:04:09;15.73;;;5.23;;
3597;SDS011;1813;52.016;8.714;2023-12-20T13:06:48;12.30;;;5.00;;
3597;SDS011;1813;52.016;8.714;2023-12-20T13:09:22;11.80;;;4.93;;
3597;SDS011;1813;52.016;8.714;2023-12-20T13:11:56;16.13;;;5.40;;
3597;SDS011;1813;52.016;8.714;2023-12-20T13:14:35;14.10;;;5.93;;
3597;SDS011;1813;52.016;8.714;2023-12-20T13:17:10;22.17;;;5.63;;
3597;SDS011;1813;52.016;8.714;2023-12-20T13:19:44;19.20;;;5.87;;
3597;SDS011;1813;52.016;8.714;2023-12-20T13:22:17;17.80;;;6.80;;
3597;SDS011;1813;52.016;8.714;2023-12-20T13:24:51;16.90;;;6.30;;
3597;SDS011;1813;52.016;8.714;2023-12-20T13:27:26;10.00;;;4.07;;
3597;SDS011;1813;52.016;8.714;2023-12-20T13:30:03;5.33;;;2.43;;
3597;SDS011;1813;52.016;8.714;2023-12-20T13:32:37;3.33;;;1.80;;
3597;SDS011;1813;52.016;8.714;2023-12-20T13:35:11;4.90;;;2.00;;
3597;SDS011;1813;52.016;8.714;2023-12-20T13:37:45;2.10;;;1.90;;
3597;SDS011;1813;52.016;8.714;2023-12-20T13:40:18;8.07;;;2.30;;
3597;SDS011;1813;52.016;8.714;2023-12-20T13:42:52;7.67;;;2.27;;
3597;SDS011;1813;52.016;8.714;2023-12-20T13:45:29;7.77;;;2.50;;
3597;SDS011;1813;52.016;8.714;2023-12-20T13:48:03;5.33;;;2.30;;
3597;SDS011;1813;52.016;8.714;2023-12-20T13:50:37;8.60;;;2.10;;
3597;SDS011;1813;52.016;8.714;2023-12-20T13:53:11;5.30;;;1.97;;
3597;SDS011;1813;52.016;8.714;2023-12-20T13:55:46;10.70;;;2.87;;
3597;SDS011;1813;52.016;8.714;2023-12-20T13:58:20;5.20;;;2.30;;
3597;SDS011;1813;52.016;8.714;2023-12-20T14:00:58;7.87;;;2.40;;
3597;SDS011;1813;52.016;8.714;2023-12-20T14:03:34;10.90;;;2.80;;
3597;SDS011;1813;52.016;8.714;2023-12-20T14:06:08;4.77;;;2.20;;
3597;SDS011;1813;52.016;8.714;2023-12-20T14:08:43;3.80;;;1.90;;
3597;SDS011;1813;52.016;8.714;2023-12-20T14:11:18;6.60;;;2.33;;
3597;SDS011;1813;52.016;8.714;2023-12-20T14:13:52;9.83;;;2.10;;
3597;SDS011;1813;52.016;8.714;2023-12-20T14:16:30;5.83;;;2.10;;
3597;SDS011;1813;52.016;8.714;2023-12-20T14:19:04;9.23;;;2.37;;
3597;SDS011;1813;52.016;8.714;2023-12-20T14:21:39;7.73;;;2.37;;
3597;SDS011;1813;52.016;8.714;2023-12-20T14:24:15;7.40;;;2.13;;
3597;SDS011;1813;52.016;8.714;2023-12-20T14:26:49;5.83;;;2.40;;
3597;SDS011;1813;52.016;8.714;2023-12-20T14:29:22;9.27;;;2.67;;
3597;SDS011;1813;52.016;8.714;2023-12-20T14:31:58;7.23;;;2.30;;
3597;SDS011;1813;52.016;8.714;2023-12-20T14:34:33;6.60;;;2.03;;
3597;SDS011;1813;52.016;8.714;2023-12-20T14:37:11;4.40;;;2.10;;
3597;SDS011;1813;52.016;8.714;2023-12-20T14:39:44;5.67;;;2.03;;
3597;SDS011;1813;52.016;8.714;2023-12-20T14:42:19;9.23;;;2.67;;
3597;SDS011;1813;52.016;8.714;2023-12-20T14:44:53;9.20;;;2.33;;
3597;SDS011;1813;52.016;8.714;2023-12-20T14:47:29;6.77;;;2.30;;
3597;SDS011;1813;52.016;8.714;2023-12-20T14:50:02;8.97;;;2.20;;
3597;SDS011;1813;52.016;8.714;2023-12-20T14:52:36;7.37;;;2.80;;
3597;SDS011;1813;52.016;8.714;2023-12-20T14:55:10;6.10;;;2.50;;
3597;SDS011;1813;52.016;8.714;2023-12-20T14:57:44;7.10;;;2.70;;
3597;SDS011;1813;52.016;8.714;2023-12-20T15:00:19;7.03;;;2.67;;
3597;SDS011;1813;52.016;8.714;2023-12-20T15:02:56;4.37;;;2.30;;
3597;SDS011;1813;52.016;8.714;2023-12-20T15:05:30;6.13;;;2.27;;
3597;SDS011;1813;52.016;8.714;2023-12-20T15:08:06;3.93;;;1.80;;
3597;SDS011;1813;52.016;8.714;2023-12-20T15:10:41;4.43;;;1.97;;
3597;SDS011;1813;52.016;8.714;2023-12-20T15:13:14;6.50;;;2.27;;
3597;SDS011;1813;52.016;8.714;2023-12-20T15:15:48;6.50;;;2.37;;
3597;SDS011;1813;52.016;8.714;2023-12-20T15:18:24;7.80;;;2.37;;
3597;SDS011;1813;52.016;8.714;2023-12-20T15:20:58;9.13;;;2.10;;
3597;SDS011;1813;52.016;8.714;2023-12-20T15:23:31;7.80;;;2.30;;
3597;SDS011;1813;52.016;8.714;2023-12-20T15:26:05;4.77;;;1.87;;
3597;SDS011;1813;52.016;8.714;2023-12-20T15:28:38;6.27;;;2.40;;
3597;SDS011;1813;52.016;8.714;2023-12-20T15:31:11;7.90;;;2.10;;
3597;SDS011;1813;52.016;8.714;2023-12-20T15:33:47;6.30;;;2.37;;
3597;SDS011;1813;52.016;8.714;2023-12-20T15:36:21;6.17;;;2.50;;
3597;SDS011;1813;52.016;8.714;2023-12-20T15:38:54;9.97;;;3.07;;
3597;SDS011;1813;52.016;8.714;2023-12-20T15:41:28;6.83;;;2.40;;
3597;SDS011;1813;52.016;8.714;2023-12-20T15:44:01;5.60;;;2.40;;
3597;SDS011;1813;52.016;8.714;2023-12-20T15:46:35;9.50;;;3.50;;
3597;SDS011;1813;52.016;8.714;2023-12-20T15:49:14;7.03;;;2.83;;